Time;durP1;ratioP1;P1;durP2;ratioP2;P2;SDS_P1;SDS_P2;PMS_P1;PMS_P2;Temp;Humidity;BMP_temperature;BMP_pressure;BME280_temperature;BME280_humidity;BME280_pressure;Samples;Min_cycle;Max_cycle;Signal;HPM_P1;HPM_P2
2023/12/16 00:01:37;;;;;;;1.37;1.17;;;8.20;99.90;;;;;;4862529;29;20459;-75
2023/12/16 00:04:13;;;;;;;0.90;0.60;;;8.10;99.90;;;;;;4864319;29;20455;-76
2023/12/16 00:06:41;;;;;;;0.60;0.40;;;8.00;99.90;;;;;;4871496;29;20478;-76
2023/12/16 00:09:09;;;;;;;0.50;0.27;;;8.00;99.90;;;;;;4866907;29;20462;-75
2023/12/16 00:11:37;;;;;;;0.73;0.73;;;8.00;99.90;;;;;;4873110;29;20478;-75
2023/12/16 00:14:05;;;;;;;0.83;0.83;;;8.10;99.90;;;;;;4863244;29;20466;-76
2023/12/16 00:16:33;;;;;;;0.50;0.10;;;;;;;;;;4867718;29;20510;-74
2023/12/16 00:19:01;;;;;;;0.50;0.10;;;8.30;99.90;;;;;;4868624;29;20451;-75
2023/12/16 00:21:31;;;;;;;0.50;0.10;;;8.30;99.90;;;;;;4869449;29;20450;-76
2023/12/16 00:23:58;;;;;;;0.50;0.10;;;8.40;99.90;;;;;;4860404;29;20452;-76
2023/12/16 00:26:26;;;;;;;0.50;0.10;;;8.40;99.90;;;;;;4865368;29;20542;-76
2023/12/16 00:28:54;;;;;;;1.70;1.60;;;8.40;99.90;;;;;;4870080;29;20515;-76
2023/12/16 00:31:22;;;;;;;1.60;1.50;;;8.40;99.90;;;;;;4878202;29;20456;-75
2023/12/16 00:33:50;;;;;;;0.50;0.10;;;8.40;99.90;;;;;;4879799;29;20937;-76
2023/12/16 00:36:18;;;;;;;0.67;0.53;;;8.40;99.90;;;;;;4879373;29;20477;-75
2023/12/16 00:38:47;;;;;;;0.50;0.10;;;8.40;99.90;;;;;;4861502;29;20495;-75
2023/12/16 00:41:15;;;;;;;0.77;0.77;;;8.40;99.90;;;;;;4875646;29;20523;-75
2023/12/16 00:43:43;;;;;;;0.60;0.40;;;8.40;99.90;;;;;;4876858;29;20481;-75
2023/12/16 00:46:11;;;;;;;0.60;0.50;;;8.40;99.90;;;;;;4878512;29;20470;-76
2023/12/16 00:48:39;;;;;;;0.50;0.10;;;8.30;99.90;;;;;;4878740;29;20951;-76
2023/12/16 00:51:08;;;;;;;0.50;0.10;;;8.40;99.90;;;;;;4877454;29;20922;-75
2023/12/16 00:53:36;;;;;;;0.50;0.20;;;8.40;99.90;;;;;;4870525;29;20590;-75
2023/12/16 00:56:06;;;;;;;1.13;1.03;;;8.30;99.90;;;;;;4874973;29;20553;-75
2023/12/16 00:58:34;;;;;;;0.50;0.20;;;8.30;99.90;;;;;;4870162;29;20510;-76
2023/12/16 01:01:02;;;;;;;0.50;0.10;;;8.30;99.90;;;;;;4859958;29;20487;-75
2023/12/16 01:03:30;;;;;;;0.83;0.83;;;8.30;99.90;;;;;;4873509;29;20462;-75
2023/12/16 01:05:58;;;;;;;0.70;0.33;;;8.30;99.90;;;;;;4863446;29;20462;-76
2023/12/16 01:08:26;;;;;;;0.50;0.30;;;8.30;99.90;;;;;;4863755;29;20502;-75
2023/12/16 01:10:54;;;;;;;0.50;0.10;;;8.30;99.90;;;;;;4867215;29;20462;-76
2023/12/16 01:13:23;;;;;;;0.50;0.10;;;8.20;99.90;;;;;;4861014;29;20863;-75
2023/12/16 01:15:51;;;;;;;0.53;0.27;;;8.20;99.90;;;;;;4860406;29;20452;-76
2023/12/16 01:18:19;;;;;;;0.50;0.30;;;8.20;99.90;;;;;;4860345;29;20563;-75
2023/12/16 01:20:47;;;;;;;0.50;0.10;;;8.10;99.90;;;;;;4873842;29;20590;-74
2023/12/16 01:23:15;;;;;;;3.00;1.40;;;8.20;99.90;;;;;;4860193;29;20487;-76
2023/12/16 01:25:43;;;;;;;0.60;0.37;;;8.20;99.90;;;;;;4866765;29;21010;-76
2023/12/16 01:28:12;;;;;;;1.63;0.83;;;8.10;99.90;;;;;;4873366;29;20478;-75
2023/12/16 01:30:41;;;;;;;0.50;0.20;;;8.10;99.90;;;;;;4877074;29;20455;-76
2023/12/16 01:33:09;;;;;;;0.60;0.50;;;8.00;99.90;;;;;;4872956;29;20514;-75
2023/12/16 01:35:37;;;;;;;0.50;0.10;;;8.00;99.90;;;;;;4874205;29;20458;-75
2023/12/16 01:38:05;;;;;;;0.50;0.20;;;8.10;99.90;;;;;;4871627;29;20518;-75
2023/12/16 01:40:33;;;;;;;1.70;1.50;;;8.10;99.90;;;;;;4871875;29;20451;-75
2023/12/16 01:43:04;;;;;;;0.50;0.10;;;8.10;99.90;;;;;;4870825;29;20910;-75
2023/12/16 01:45:32;;;;;;;0.50;0.10;;;8.10;99.90;;;;;;4866454;29;20520;-75
2023/12/16 01:48:02;;;;;;;0.50;0.10;;;8.10;99.90;;;;;;4873720;29;20494;-74
2023/12/16 01:50:31;;;;;;;0.50;0.10;;;8.20;99.90;;;;;;4887876;29;20443;-75
2023/12/16 01:52:59;;;;;;;0.50;0.10;;;8.30;99.90;;;;;;4888226;29;20460;-74
2023/12/16 01:55:27;;;;;;;0.50;0.10;;;8.20;99.90;;;;;;4891042;29;20481;-74
2023/12/16 01:57:56;;;;;;;2.30;2.20;;;8.30;99.90;;;;;;4879093;29;20491;-76
2023/12/16 02:00:25;;;;;;;0.50;0.10;;;8.30;99.90;;;;;;4872365;29;20482;-75
2023/12/16 02:02:52;;;;;;;0.70;0.53;;;8.30;99.90;;;;;;4883665;29;20946;-76
2023/12/16 02:05:22;;;;;;;0.50;0.10;;;8.20;99.90;;;;;;4896208;29;20459;-75
2023/12/16 02:07:50;;;;;;;0.50;0.10;;;8.20;99.90;;;;;;4893378;29;20495;-75
2023/12/16 02:10:18;;;;;;;0.50;0.10;;;8.20;99.90;;;;;;4877417;29;20454;-75
2023/12/16 02:12:46;;;;;;;0.50;0.20;;;8.20;99.90;;;;;;4872697;29;20478;-75
2023/12/16 02:15:14;;;;;;;1.23;1.13;;;8.20;99.90;;;;;;4879601;29;20465;-74
2023/12/16 02:17:42;;;;;;;1.60;1.50;;;8.20;99.90;;;;;;4881738;29;20478;-76
2023/12/16 02:20:13;;;;;;;1.47;0.57;;;8.20;99.90;;;;;;4874597;29;20969;-75
2023/12/16 02:22:46;;;;;;;1.33;0.67;;;8.10;99.90;;;;;;4872989;29;20547;-75
2023/12/16 02:25:17;;;;;;;0.50;0.10;;;8.10;99.90;;;;;;4874559;29;20482;-73
2023/12/16 02:27:46;;;;;;;0.50;0.30;;;8.10;99.90;;;;;;4885595;29;20484;-74
2023/12/16 02:30:14;;;;;;;1.03;0.97;;;8.10;99.90;;;;;;4875533;29;20453;-75
2023/12/16 02:32:42;;;;;;;0.60;0.50;;;8.00;99.90;;;;;;4881769;29;20481;-75
2023/12/16 02:35:10;;;;;;;0.50;0.10;;;8.00;99.90;;;;;;4868462;29;20447;-74
2023/12/16 02:37:38;;;;;;;0.50;0.10;;;8.00;99.90;;;;;;4862525;29;20505;-74
2023/12/16 02:40:08;;;;;;;0.50;0.10;;;8.10;99.90;;;;;;4869496;29;20451;-75
2023/12/16 02:42:37;;;;;;;0.50;0.20;;;9.50;99.90;;;;;;4869459;29;20454;-75
2023/12/16 02:45:06;;;;;;;0.50;0.10;;;8.10;99.90;;;;;;4869677;29;21031;-74
2023/12/16 02:47:33;;;;;;;1.13;1.03;;;8.10;99.90;;;;;;4870646;29;21014;-75
2023/12/16 02:50:03;;;;;;;0.50;0.10;;;8.10;99.90;;;;;;4867094;29;20541;-75
2023/12/16 02:52:31;;;;;;;0.50;0.10;;;8.10;99.90;;;;;;4881261;29;20507;-75
2023/12/16 02:54:59;;;;;;;0.50;0.10;;;8.20;99.90;;;;;;4881932;29;20550;-75
2023/12/16 02:57:27;;;;;;;0.50;0.20;;;8.20;99.90;;;;;;4867786;29;20554;-75
2023/12/16 02:59:56;;;;;;;0.50;0.10;;;8.10;99.90;;;;;;4874007;29;21066;-75
2023/12/16 03:02:24;;;;;;;0.50;0.40;;;8.20;99.90;;;;;;4869558;29;20865;-75
2023/12/16 03:04:52;;;;;;;1.47;0.53;;;;;;;;;;4865565;29;20784;-75
2023/12/16 03:07:20;;;;;;;2.00;1.23;;;7.80;99.90;;;;;;4867931;29;20475;-75
2023/12/16 03:09:48;;;;;;;0.50;0.10;;;7.90;99.90;;;;;;4877059;29;20459;-75
2023/12/16 03:12:17;;;;;;;0.50;0.10;;;7.90;99.90;;;;;;4874528;29;20448;-75
2023/12/16 03:14:45;;;;;;;0.50;0.10;;;8.00;99.90;;;;;;4866601;29;20492;-74
2023/12/16 03:17:15;;;;;;;0.50;0.10;;;;;;;;;;4869876;29;20467;-74
2023/12/16 03:19:43;;;;;;;0.50;0.10;;;8.00;99.90;;;;;;4863014;29;21177;-75
2023/12/16 03:22:11;;;;;;;0.80;0.47;;;8.00;99.90;;;;;;4869901;29;20459;-74
2023/12/16 03:24:39;;;;;;;0.50;0.10;;;8.00;99.90;;;;;;4877820;29;20464;-74
2023/12/16 03:27:07;;;;;;;0.53;0.27;;;8.00;99.90;;;;;;4871304;29;20505;-75
2023/12/16 03:29:35;;;;;;;0.50;0.10;;;8.10;99.90;;;;;;4873490;29;20458;-74
2023/12/16 03:32:03;;;;;;;1.00;0.83;;;8.10;99.90;;;;;;4882357;29;20450;-75
2023/12/16 03:34:32;;;;;;;0.80;0.80;;;8.00;99.90;;;;;;4878836;29;20448;-74
2023/12/16 03:37:00;;;;;;;1.60;0.47;;;8.00;99.90;;;;;;4886107;29;20493;-75
2023/12/16 03:39:28;;;;;;;2.53;1.40;;;8.00;99.90;;;;;;4881931;29;20534;-74
2023/12/16 03:41:56;;;;;;;0.50;0.20;;;8.00;99.90;;;;;;4881117;29;20957;-75
2023/12/16 03:44:24;;;;;;;1.57;1.07;;;8.00;99.90;;;;;;4869322;29;20499;-74
2023/12/16 03:46:52;;;;;;;0.77;0.37;;;8.00;99.90;;;;;;4865012;29;20521;-74
2023/12/16 03:49:20;;;;;;;1.70;1.17;;;8.00;99.90;;;;;;4880349;29;20446;-74
2023/12/16 03:51:49;;;;;;;0.90;0.70;;;8.00;99.90;;;;;;4879229;29;20545;-74
2023/12/16 03:54:17;;;;;;;0.70;0.60;;;8.10;99.90;;;;;;4875439;29;20465;-74
2023/12/16 03:56:45;;;;;;;0.50;0.30;;;8.10;99.90;;;;;;4876983;29;20912;-75
2023/12/16 03:59:13;;;;;;;0.97;0.50;;;8.10;99.90;;;;;;4873542;29;20485;-73
2023/12/16 04:01:44;;;;;;;0.60;0.40;;;8.10;99.90;;;;;;4872031;29;20831;-75
2023/12/16 04:04:12;;;;;;;1.37;0.73;;;8.00;99.90;;;;;;4870826;29;20458;-75
2023/12/16 04:06:40;;;;;;;0.50;0.17;;;7.90;99.90;;;;;;4870968;29;20536;-75
2023/12/16 04:09:10;;;;;;;0.50;0.30;;;7.90;99.90;;;;;;4866748;29;20444;-74
2023/12/16 04:11:45;;;;;;;0.50;0.20;;;8.00;99.90;;;;;;4883937;29;20545;-74
2023/12/16 04:14:13;;;;;;;0.50;0.10;;;8.10;99.90;;;;;;4864507;29;20487;-74
2023/12/16 04:16:41;;;;;;;0.97;0.73;;;8.00;99.90;;;;;;4868506;29;20895;-74
2023/12/16 04:19:10;;;;;;;0.50;0.10;;;8.00;99.90;;;;;;4871070;29;20530;-74
2023/12/16 04:21:38;;;;;;;0.50;0.10;;;7.90;99.90;;;;;;4879141;29;20450;-75
2023/12/16 04:24:07;;;;;;;0.50;0.10;;;8.00;99.90;;;;;;4869135;29;20450;-74
2023/12/16 04:26:37;;;;;;;0.50;0.10;;;8.00;99.90;;;;;;4861720;29;20952;-75
2023/12/16 04:29:05;;;;;;;0.50;0.20;;;8.00;99.90;;;;;;4877234;29;20454;-75
2023/12/16 04:31:33;;;;;;;0.97;0.87;;;8.00;99.90;;;;;;4871250;29;20551;-76
2023/12/16 04:34:01;;;;;;;0.50;0.27;;;11.40;99.90;;;;;;4861463;29;20550;-74
2023/12/16 04:36:29;;;;;;;1.10;0.97;;;7.90;99.90;;;;;;4873909;29;21173;-76
2023/12/16 04:38:57;;;;;;;0.50;0.10;;;7.70;99.90;;;;;;4873376;29;20489;-75
2023/12/16 04:41:25;;;;;;;0.93;0.93;;;7.70;99.90;;;;;;4861351;29;20987;-74
2023/12/16 04:43:54;;;;;;;0.77;0.70;;;7.70;99.90;;;;;;4868827;29;20558;-74
2023/12/16 04:46:22;;;;;;;0.70;0.30;;;7.70;99.90;;;;;;4860912;29;20969;-74
2023/12/16 04:48:50;;;;;;;0.50;0.10;;;7.60;99.90;;;;;;4878448;29;20458;-76
2023/12/16 04:51:20;;;;;;;0.50;0.10;;;7.50;99.90;;;;;;4861632;29;20526;-75
2023/12/16 04:53:48;;;;;;;0.50;0.20;;;7.70;99.90;;;;;;4877244;29;20482;-75
2023/12/16 04:56:16;;;;;;;0.50;0.10;;;;;;;;;;4880622;29;20501;-75
2023/12/16 04:58:44;;;;;;;1.43;0.77;;;7.60;99.90;;;;;;4873252;29;20462;-75
2023/12/16 05:01:14;;;;;;;0.53;0.20;;;7.70;99.90;;;;;;4875907;29;20521;-74
2023/12/16 05:03:42;;;;;;;0.50;0.10;;;7.70;99.90;;;;;;4874887;29;20977;-75
2023/12/16 05:06:10;;;;;;;0.50;0.20;;;7.80;99.90;;;;;;4870494;29;20474;-75
2023/12/16 05:08:38;;;;;;;2.23;2.03;;;7.90;99.90;;;;;;4877172;29;20455;-75
2023/12/16 05:11:06;;;;;;;0.50;0.10;;;7.90;99.90;;;;;;4872020;29;20443;-75
2023/12/16 05:13:34;;;;;;;3.07;2.33;;;9.70;99.90;;;;;;4879273;29;20446;-76
2023/12/16 05:16:01;;;;;;;0.50;0.10;;;8.00;99.90;;;;;;4876271;29;21457;-76
2023/12/16 05:18:31;;;;;;;0.60;0.40;;;7.90;99.90;;;;;;4875646;29;20458;-75
2023/12/16 05:20:59;;;;;;;2.47;2.37;;;7.90;99.90;;;;;;4872009;29;20487;-75
2023/12/16 05:23:27;;;;;;;2.27;2.17;;;7.90;99.90;;;;;;4876661;29;20490;-74
2023/12/16 05:25:54;;;;;;;0.50;0.10;;;7.90;99.90;;;;;;4881349;29;20537;-74
2023/12/16 05:28:22;;;;;;;0.50;0.20;;;8.00;99.90;;;;;;4873368;29;20494;-75
2023/12/16 05:30:49;;;;;;;0.50;0.10;;;8.00;99.90;;;;;;4879300;29;20475;-75
2023/12/16 05:33:17;;;;;;;0.50;0.10;;;7.90;99.90;;;;;;4879936;29;20451;-76
2023/12/16 05:35:46;;;;;;;0.70;0.50;;;7.90;99.90;;;;;;4876093;29;20475;-76
2023/12/16 05:38:14;;;;;;;1.13;1.03;;;7.90;99.90;;;;;;4861286;29;20446;-74
2023/12/16 05:40:42;;;;;;;4.00;1.03;;;7.90;99.90;;;;;;4871317;29;20478;-74
2023/12/16 05:43:10;;;;;;;0.50;0.10;;;7.90;99.90;;;;;;4880672;29;20538;-76
2023/12/16 05:45:38;;;;;;;1.07;0.97;;;7.90;99.90;;;;;;4875133;29;20564;-75
2023/12/16 05:48:06;;;;;;;0.50;0.20;;;7.80;99.90;;;;;;4872718;29;20478;-75
2023/12/16 05:50:34;;;;;;;0.63;0.30;;;7.80;99.90;;;;;;4876665;29;20641;-75
2023/12/16 05:53:05;;;;;;;1.43;1.23;;;7.80;99.90;;;;;;4879864;29;20542;-74
2023/12/16 05:55:33;;;;;;;3.80;3.60;;;7.80;99.90;;;;;;4881638;29;20451;-75
2023/12/16 05:58:02;;;;;;;0.50;0.10;;;7.90;99.90;;;;;;4879398;29;20489;-75
2023/12/16 06:00:30;;;;;;;0.60;0.57;;;7.80;99.90;;;;;;4875608;29;20608;-74
2023/12/16 06:02:58;;;;;;;0.50;0.10;;;7.90;99.90;;;;;;4878525;29;20462;-76
2023/12/16 06:05:26;;;;;;;10.30;9.70;;;7.80;99.90;;;;;;4875006;29;20964;-76
2023/12/16 06:07:54;;;;;;;0.50;0.10;;;;;;;;;;4879314;29;20489;-74
2023/12/16 06:10:24;;;;;;;0.50;0.10;;;7.80;99.90;;;;;;4874101;29;20442;-75
2023/12/16 06:12:52;;;;;;;0.50;0.10;;;7.80;99.90;;;;;;4878376;29;20465;-75
2023/12/16 06:15:19;;;;;;;0.50;0.10;;;7.80;99.90;;;;;;4873308;29;21064;-75
2023/12/16 06:17:47;;;;;;;1.20;1.07;;;7.90;99.90;;;;;;4873500;29;20525;-75
2023/12/16 06:20:16;;;;;;;0.50;0.10;;;7.90;99.90;;;;;;4873433;29;20493;-75
2023/12/16 06:22:44;;;;;;;0.50;0.30;;;7.90;99.90;;;;;;4875886;29;20458;-74
2023/12/16 06:25:12;;;;;;;0.50;0.10;;;8.00;99.90;;;;;;4881226;29;20486;-74
2023/12/16 06:27:43;;;;;;;0.50;0.10;;;7.90;99.90;;;;;;4875588;29;21013;-75
2023/12/16 06:30:13;;;;;;;1.37;0.77;;;7.90;99.90;;;;;;4876006;29;20861;-76
2023/12/16 06:32:41;;;;;;;1.83;1.70;;;7.80;99.90;;;;;;4872682;29;20451;-75
2023/12/16 06:35:09;;;;;;;0.50;0.10;;;7.80;99.90;;;;;;4880527;29;21007;-75
2023/12/16 06:37:37;;;;;;;0.50;0.10;;;7.80;99.90;;;;;;4881808;29;20569;-75
2023/12/16 06:40:07;;;;;;;1.70;1.60;;;7.80;99.90;;;;;;4885913;29;20464;-75
2023/12/16 06:42:35;;;;;;;0.50;0.10;;;7.80;99.90;;;;;;4879511;29;20893;-75
2023/12/16 06:45:06;;;;;;;0.50;0.10;;;7.90;99.90;;;;;;4877105;29;20544;-76
2023/12/16 06:47:34;;;;;;;0.50;0.10;;;7.90;99.90;;;;;;4877696;29;20553;-76
2023/12/16 06:50:02;;;;;;;0.50;0.10;;;7.90;99.90;;;;;;4874644;29;20463;-76
2023/12/16 06:52:30;;;;;;;0.50;0.10;;;8.00;99.90;;;;;;4874729;29;20546;-74
2023/12/16 06:54:57;;;;;;;0.50;0.10;;;8.00;99.90;;;;;;4877214;29;20458;-74
2023/12/16 06:57:25;;;;;;;0.50;0.10;;;7.90;99.90;;;;;;4874286;29;20498;-76
2023/12/16 06:59:53;;;;;;;0.50;0.10;;;8.00;99.90;;;;;;4873302;29;20463;-76
2023/12/16 07:02:22;;;;;;;2.47;0.83;;;8.00;99.90;;;;;;4870796;29;20551;-75
2023/12/16 07:04:50;;;;;;;0.50;0.10;;;8.00;99.90;;;;;;4878396;29;21019;-75
2023/12/16 07:07:18;;;;;;;0.50;0.10;;;8.10;99.90;;;;;;4873774;29;20481;-75
2023/12/16 07:09:46;;;;;;;0.50;0.20;;;8.10;99.90;;;;;;4865984;29;20522;-75
2023/12/16 07:12:14;;;;;;;0.50;0.10;;;8.00;99.90;;;;;;4877599;29;20478;-75
2023/12/16 07:14:43;;;;;;;0.60;0.40;;;8.00;99.90;;;;;;4871035;29;20514;-76
2023/12/16 07:17:11;;;;;;;0.50;0.10;;;8.00;99.90;;;;;;4878757;29;20826;-76
2023/12/16 07:19:40;;;;;;;0.50;0.30;;;8.00;99.90;;;;;;4871319;29;20450;-75
2023/12/16 07:22:08;;;;;;;0.50;0.17;;;7.90;99.90;;;;;;4871245;29;20497;-75
2023/12/16 07:24:37;;;;;;;2.30;2.20;;;8.00;99.90;;;;;;4871873;29;20470;-75
2023/12/16 07:27:06;;;;;;;0.50;0.20;;;8.00;99.90;;;;;;4875922;29;20486;-74
2023/12/16 07:29:35;;;;;;;0.50;0.10;;;8.10;99.90;;;;;;4865881;29;20460;-75
2023/12/16 07:32:04;;;;;;;0.50;0.10;;;8.10;99.90;;;;;;4878632;29;20872;-74
2023/12/16 07:34:32;;;;;;;0.50;0.10;;;8.10;99.90;;;;;;4878640;29;20455;-75
2023/12/16 07:37:01;;;;;;;0.50;0.10;;;8.10;99.90;;;;;;4868043;29;20474;-75
2023/12/16 07:39:29;;;;;;;0.50;0.10;;;8.10;99.90;;;;;;4878860;29;20801;-76
2023/12/16 07:41:57;;;;;;;4.23;4.07;;;8.10;99.90;;;;;;4882738;29;20517;-76
2023/12/16 07:44:27;;;;;;;35.70;9.10;;;8.00;99.90;;;;;;4886499;29;20458;-76
2023/12/16 07:46:55;;;;;;;1.57;1.47;;;7.90;99.90;;;;;;4882971;29;20554;-75
2023/12/16 07:49:25;;;;;;;0.50;0.20;;;7.90;99.90;;;;;;4879259;29;20529;-74
2023/12/16 07:51:54;;;;;;;1.57;1.47;;;7.90;99.90;;;;;;4863881;29;20463;-75
2023/12/16 07:54:24;;;;;;;0.50;0.10;;;7.90;99.90;;;;;;4859823;29;20870;-75
2023/12/16 07:56:51;;;;;;;0.50;0.10;;;7.90;99.90;;;;;;4874855;29;21020;-75
2023/12/16 07:59:19;;;;;;;0.50;0.10;;;7.90;99.90;;;;;;4864227;29;21079;-76
2023/12/16 08:01:50;;;;;;;0.50;0.10;;;7.90;99.90;;;;;;4867076;29;20496;-76
2023/12/16 08:04:18;;;;;;;0.50;0.10;;;8.00;99.90;;;;;;4871326;29;20813;-76
2023/12/16 08:06:46;;;;;;;0.60;0.40;;;7.90;99.90;;;;;;4871984;29;20610;-76
2023/12/16 08:09:14;;;;;;;0.50;0.10;;;8.00;99.90;;;;;;4874718;29;20914;-76
2023/12/16 08:11:43;;;;;;;0.50;0.10;;;8.00;99.90;;;;;;4878993;29;20459;-76
2023/12/16 08:14:12;;;;;;;0.50;0.10;;;8.10;99.90;;;;;;4877593;29;20497;-74
2023/12/16 08:16:40;;;;;;;0.50;0.10;;;8.10;99.90;;;;;;4872514;29;20475;-75
2023/12/16 08:19:08;;;;;;;0.50;0.10;;;8.10;99.90;;;;;;4870655;29;20525;-76
2023/12/16 08:21:36;;;;;;;1.40;1.30;;;8.20;99.90;;;;;;4884303;29;20482;-76
2023/12/16 08:24:05;;;;;;;0.50;0.10;;;8.20;99.90;;;;;;4885903;29;20446;-76
2023/12/16 08:26:33;;;;;;;0.50;0.10;;;8.10;99.90;;;;;;4884858;29;20481;-76
2023/12/16 08:29:02;;;;;;;0.50;0.20;;;8.20;99.90;;;;;;4872205;29;20450;-75
2023/12/16 08:31:30;;;;;;;0.50;0.10;;;8.20;99.90;;;;;;4877024;29;20462;-75
2023/12/16 08:33:58;;;;;;;0.50;0.10;;;8.10;99.90;;;;;;4867855;29;20477;-76
2023/12/16 08:36:26;;;;;;;0.50;0.10;;;8.20;99.90;;;;;;4873721;29;20561;-76
2023/12/16 08:38:54;;;;;;;0.50;0.10;;;8.20;99.90;;;;;;4874824;29;20602;-75
2023/12/16 08:41:22;;;;;;;0.50;0.10;;;8.20;99.90;;;;;;4868271;29;20526;-74
2023/12/16 08:43:50;;;;;;;0.50;0.10;;;8.20;99.90;;;;;;4860872;29;20959;-75
2023/12/16 08:46:22;;;;;;;0.50;0.10;;;8.30;99.90;;;;;;4866876;29;20574;-75
2023/12/16 08:48:53;;;;;;;0.50;0.10;;;8.30;99.90;;;;;;4881083;29;20464;-75
2023/12/16 08:51:22;;;;;;;0.50;0.10;;;8.30;99.90;;;;;;4880720;29;20454;-75
2023/12/16 08:53:50;;;;;;;0.50;0.10;;;8.30;99.90;;;;;;4884943;29;20454;-74
2023/12/16 08:56:18;;;;;;;0.50;0.10;;;8.30;99.90;;;;;;4868569;29;20514;-74
2023/12/16 08:58:46;;;;;;;0.50;0.10;;;8.40;99.90;;;;;;4874499;29;20450;-76
2023/12/16 09:01:14;;;;;;;0.50;0.10;;;8.40;99.90;;;;;;4873612;29;20514;-74
2023/12/16 09:03:44;;;;;;;0.50;0.10;;;8.40;99.90;;;;;;4880858;29;20462;-74
2023/12/16 09:06:12;;;;;;;0.50;0.20;;;8.40;99.90;;;;;;4876857;29;20494;-75
2023/12/16 09:08:40;;;;;;;0.50;0.10;;;8.30;99.90;;;;;;4873357;29;20850;-75
2023/12/16 09:11:08;;;;;;;0.50;0.10;;;8.40;99.90;;;;;;4878609;29;21002;-76
2023/12/16 09:13:36;;;;;;;0.50;0.10;;;8.30;99.90;;;;;;4878835;29;20462;-75
2023/12/16 09:16:05;;;;;;;0.50;0.10;;;8.30;99.90;;;;;;4879043;29;20488;-76
2023/12/16 09:18:33;;;;;;;0.50;0.10;;;8.40;99.90;;;;;;4872044;29;20451;-75
2023/12/16 09:21:02;;;;;;;0.50;0.10;;;8.40;99.90;;;;;;4871160;29;20818;-75
2023/12/16 09:23:30;;;;;;;0.50;0.10;;;8.40;99.90;;;;;;4868860;29;20583;-75
2023/12/16 09:25:58;;;;;;;0.70;0.70;;;8.40;99.90;;;;;;4871337;29;20518;-74
2023/12/16 09:28:28;;;;;;;0.50;0.30;;;8.40;99.90;;;;;;4877509;29;20466;-75
2023/12/16 09:30:56;;;;;;;0.70;0.63;;;8.30;99.90;;;;;;4881881;29;20454;-75
2023/12/16 09:33:24;;;;;;;0.50;0.10;;;8.30;99.90;;;;;;4873934;29;20537;-76
2023/12/16 09:35:52;;;;;;;1.20;0.80;;;8.00;99.90;;;;;;4872997;29;20474;-75
2023/12/16 09:38:23;;;;;;;0.50;0.10;;;;;;;;;;4883071;29;20762;-75
2023/12/16 09:40:56;;;;;;;0.60;0.50;;;8.30;99.90;;;;;;4875469;29;21035;-75
2023/12/16 09:43:24;;;;;;;0.50;0.10;;;8.40;99.90;;;;;;4881645;29;21090;-75
2023/12/16 09:45:53;;;;;;;0.50;0.20;;;8.40;99.90;;;;;;4873750;29;20456;-76
2023/12/16 09:48:22;;;;;;;0.50;0.10;;;8.50;99.90;;;;;;4878535;29;20538;-74
2023/12/16 09:50:50;;;;;;;0.50;0.10;;;8.50;99.90;;;;;;4878257;29;20446;-75
2023/12/16 09:53:18;;;;;;;0.50;0.10;;;7.50;99.90;;;;;;4880624;29;20523;-75
2023/12/16 09:55:47;;;;;;;0.80;0.67;;;8.60;99.90;;;;;;4877128;29;20882;-75
2023/12/16 09:58:20;;;;;;;0.50;0.17;;;8.60;99.90;;;;;;4875516;29;20457;-75
2023/12/16 10:00:49;;;;;;;0.50;0.10;;;8.70;99.90;;;;;;4881058;29;20481;-75
2023/12/16 10:03:17;;;;;;;0.50;0.10;;;8.70;99.90;;;;;;4875103;29;20521;-75
2023/12/16 10:05:47;;;;;;;0.50;0.20;;;8.80;99.90;;;;;;4875878;29;20458;-75
2023/12/16 10:08:15;;;;;;;0.50;0.10;;;8.80;99.90;;;;;;4880890;29;20450;-74
2023/12/16 10:10:51;;;;;;;0.50;0.10;;;;;;;;;;4874119;29;20824;-74
2023/12/16 10:13:33;;;;;;;0.50;0.10;;;8.90;99.90;;;;;;4878531;29;20989;-74
2023/12/16 10:16:01;;;;;;;0.50;0.10;;;8.80;99.90;;;;;;4878809;29;20875;-75
2023/12/16 10:18:29;;;;;;;2.07;1.93;;;8.80;99.90;;;;;;4879614;29;20473;-73
2023/12/16 10:20:57;;;;;;;0.50;0.10;;;8.90;99.90;;;;;;4880569;29;20452;-74
2023/12/16 10:23:30;;;;;;;0.50;0.10;;;8.90;99.90;;;;;;4878983;29;20525;-73
2023/12/16 10:25:59;;;;;;;0.50;0.20;;;8.90;99.90;;;;;;4879478;29;20486;-74
2023/12/16 10:28:27;;;;;;;0.50;0.10;;;9.00;99.90;;;;;;4873005;29;20456;-74
2023/12/16 10:30:55;;;;;;;0.50;0.10;;;8.90;99.90;;;;;;4869332;29;20457;-75
2023/12/16 10:33:27;;;;;;;0.50;0.20;;;9.00;99.90;;;;;;4877808;29;20549;-75
2023/12/16 10:35:55;;;;;;;0.50;0.10;;;8.90;99.90;;;;;;4879086;29;20929;-73
2023/12/16 10:38:26;;;;;;;0.50;0.10;;;8.90;99.90;;;;;;4875895;29;20490;-74
2023/12/16 10:40:54;;;;;;;0.50;0.10;;;9.00;99.90;;;;;;4872790;29;20454;-74
2023/12/16 10:43:23;;;;;;;0.50;0.10;;;9.00;99.90;;;;;;4875401;29;21104;-74
2023/12/16 10:45:52;;;;;;;0.50;0.10;;;9.10;99.90;;;;;;4879781;29;20506;-74
2023/12/16 10:48:22;;;;;;;0.50;0.10;;;9.10;99.90;;;;;;4869013;29;20459;-74
2023/12/16 10:50:50;;;;;;;0.50;0.10;;;9.20;99.90;;;;;;4879640;29;20468;-74
2023/12/16 10:53:24;;;;;;;0.50;0.10;;;9.10;99.90;;;;;;4879420;29;20488;-74
2023/12/16 10:55:59;;;;;;;0.67;0.40;;;9.10;99.90;;;;;;4873958;29;20442;-74
2023/12/16 10:58:31;;;;;;;0.50;0.10;;;9.10;99.90;;;;;;4868222;29;20967;-74
2023/12/16 11:01:05;;;;;;;0.50;0.20;;;9.10;99.90;;;;;;4867860;29;20451;-75
2023/12/16 11:03:37;;;;;;;0.50;0.10;;;9.20;99.90;;;;;;4871005;29;20569;-76
2023/12/16 11:06:12;;;;;;;0.50;0.10;;;9.20;99.90;;;;;;4870712;29;20488;-74
2023/12/16 11:08:41;;;;;;;0.50;0.10;;;9.20;99.90;;;;;;4879049;29;20460;-74
2023/12/16 11:11:09;;;;;;;0.50;0.10;;;9.20;99.90;;;;;;4871876;29;20471;-73
2023/12/16 11:13:39;;;;;;;0.50;0.10;;;9.20;99.90;;;;;;4879747;29;20467;-74
2023/12/16 11:16:27;;;;;;;0.93;0.50;;;9.20;99.90;;;;;;4870695;29;20502;-74
2023/12/16 11:18:58;;;;;;;10.80;9.90;;;9.20;99.90;;;;;;4873544;29;20449;-74
2023/12/16 11:21:27;;;;;;;0.50;0.10;;;9.20;99.90;;;;;;4877889;29;20935;-73
2023/12/16 11:23:57;;;;;;;0.60;0.50;;;9.20;99.90;;;;;;4871540;29;20489;-73
2023/12/16 11:26:27;;;;;;;0.50;0.10;;;9.20;99.90;;;;;;4866225;29;21031;-74
2023/12/16 11:28:57;;;;;;;0.50;0.10;;;9.20;99.90;;;;;;4877843;29;20965;-73
2023/12/16 11:31:26;;;;;;;0.50;0.10;;;9.20;99.90;;;;;;4874405;29;20880;-74
2023/12/16 11:33:54;;;;;;;0.50;0.10;;;9.30;99.90;;;;;;4873769;29;20493;-74
2023/12/16 11:36:47;;;;;;;0.50;0.17;;;9.20;99.90;;;;;;4879832;29;20481;-74
2023/12/16 11:39:37;;;;;;;0.50;0.10;;;9.20;99.90;;;;;;4880316;29;20500;-74
2023/12/16 11:42:06;;;;;;;2.77;2.60;;;9.20;99.90;;;;;;4871645;29;20458;-74
2023/12/16 11:44:53;;;;;;;2.00;1.90;;;9.10;99.90;;;;;;4872306;29;21048;-74
2023/12/16 11:47:22;;;;;;;0.50;0.10;;;9.10;99.90;;;;;;4873474;29;20493;-74
2023/12/16 11:49:50;;;;;;;1.00;0.20;;;6.60;99.90;;;;;;4874598;29;20768;-74
2023/12/16 11:52:20;;;;;;;0.50;0.10;;;9.10;99.90;;;;;;4874428;29;20997;-74
2023/12/16 11:54:53;;;;;;;0.50;0.20;;;9.10;99.90;;;;;;4868027;29;20493;-74
2023/12/16 11:57:21;;;;;;;1.23;0.93;;;9.20;99.90;;;;;;4878685;29;20510;-75
2023/12/16 11:59:56;;;;;;;5.80;2.30;;;9.30;99.90;;;;;;4877083;29;20458;-74
2023/12/16 12:02:24;;;;;;;1.07;0.37;;;9.20;99.90;;;;;;4878158;29;20447;-74
2023/12/16 12:04:52;;;;;;;1.73;1.27;;;9.20;99.90;;;;;;4875227;29;20529;-75
2023/12/16 12:07:29;;;;;;;1.13;0.70;;;9.30;99.90;;;;;;5074430;27;20538;-74
2023/12/16 12:09:57;;;;;;;1.60;1.50;;;9.20;99.90;;;;;;5068596;28;20813;-75
2023/12/16 12:12:25;;;;;;;1.63;1.07;;;9.20;99.90;;;;;;5068367;28;20953;-74
2023/12/16 12:14:53;;;;;;;1.20;1.10;;;9.00;99.90;;;;;;5068819;28;20452;-74
2023/12/16 12:17:22;;;;;;;1.63;0.90;;;9.00;99.90;;;;;;5069210;28;20485;-76
2023/12/16 12:19:50;;;;;;;0.70;0.57;;;8.90;99.90;;;;;;5066836;28;20975;-75
2023/12/16 12:22:20;;;;;;;3.70;1.13;;;8.80;99.90;;;;;;5064662;28;20917;-75
2023/12/16 12:24:50;;;;;;;7.70;0.60;;;8.80;99.90;;;;;;5068897;28;20477;-74
2023/12/16 12:27:18;;;;;;;0.50;0.20;;;8.80;99.90;;;;;;5067895;28;20494;-75
2023/12/16 12:29:56;;;;;;;0.50;0.10;;;9.00;99.90;;;;;;5067834;28;20477;-75
2023/12/16 12:32:24;;;;;;;0.93;0.40;;;9.00;99.90;;;;;;5060858;28;20623;-75
2023/12/16 12:35:00;;;;;;;0.50;0.17;;;9.10;99.90;;;;;;5072948;28;20775;-74
2023/12/16 12:37:36;;;;;;;1.13;0.67;;;;;;;;;;5063076;28;20499;-73
2023/12/16 12:40:16;;;;;;;4.10;0.80;;;9.30;99.90;;;;;;5068457;28;20467;-75
2023/12/16 12:42:46;;;;;;;0.80;0.63;;;9.20;99.90;;;;;;5068361;28;20503;-74
2023/12/16 12:45:24;;;;;;;1.07;0.97;;;9.20;99.90;;;;;;5066392;28;20522;-75
2023/12/16 12:47:52;;;;;;;0.50;0.10;;;9.10;99.90;;;;;;5067348;28;20547;-76
2023/12/16 12:50:22;;;;;;;1.43;1.30;;;9.20;99.90;;;;;;5066250;28;20510;-74
2023/12/16 12:52:50;;;;;;;1.47;0.77;;;9.30;99.90;;;;;;5063455;28;20885;-75
2023/12/16 12:55:43;;;;;;;0.50;0.17;;;9.20;99.90;;;;;;5067518;28;20444;-75
2023/12/16 12:58:11;;;;;;;0.60;0.30;;;9.30;99.90;;;;;;5065651;28;20459;-75
2023/12/16 13:00:50;;;;;;;1.13;0.60;;;9.30;99.90;;;;;;5067428;28;20453;-74
2023/12/16 13:03:18;;;;;;;0.83;0.57;;;9.30;99.90;;;;;;5065404;28;20563;-75
2023/12/16 13:05:46;;;;;;;0.50;0.10;;;9.40;99.90;;;;;;5067043;28;20462;-74
2023/12/16 13:08:15;;;;;;;0.50;0.10;;;9.50;99.90;;;;;;5066053;28;20460;-74
2023/12/16 13:10:45;;;;;;;0.50;0.30;;;9.50;99.90;;;;;;5068500;28;20472;-76